CheckWX is a tool to help pilots better visualize weather data.  It is not intended as a substitute for an official pre-flight weather briefing.

22:52:23 UTC

KSLC METAR
Salt Lake City International Airport
Salt Lake City, Utah, USA
Current

58 mins ago

KSLC 152154Z 32012G18KT 10SM SCT150 35/10 A2997 RMK AO2 SLP082 CB DSNT N TCU DSNT N T03500100
Observed
Jul-15 @ 21:54 UTC
Wind
  • 320° at 12 KTS
  • Gusting to 18 KTS
Visibility
10 SM
Flight Rules
VFR
Cloud Levels
  • Scattered at 15,000' AGL
Temperature
35°C / 95°F
Dewpoint
10°C / 50°F
Humidity
22%
Altimeter
29.97" Hg
Pressure
1014.92 hPa
Previous

2 hours ago

KSLC 152054Z 33008KT 10SM FEW110 SCT140 SCT250 36/09 A2998 RMK AO2 SLP079 CB DSNT NW TCU DSNT NE T03560094 58015 $
Observed
Jul-15 @ 20:54 UTC
Wind
  • 330° at 8 KTS
Visibility
10 SM
Flight Rules
VFR
Cloud Levels
  • Few at 11,000' AGL
  • Scattered at 14,000' AGL
  • Scattered at 25,000' AGL
Temperature
36°C / 97°F
Dewpoint
C / 48°F
Humidity
19%
Altimeter
29.98" Hg
Pressure
1015.22 hPa
Previous

3 hours ago

KSLC 151954Z 29007KT 10SM SCT110 SCT140 35/09 A2999 RMK AO2 SLP085 TCU DSNT NE AND NW T03500094
Observed
Jul-15 @ 19:54 UTC
Wind
  • 290° at 7 KTS
Visibility
10 SM
Flight Rules
VFR
Cloud Levels
  • Scattered at 11,000' AGL
  • Scattered at 14,000' AGL
Temperature
35°C / 95°F
Dewpoint
C / 48°F
Humidity
20%
Altimeter
29.99" Hg
Pressure
1015.62 hPa